This is the latest recevied weather packets stored in our database for station/object DO1BDB-12. If no packets are shown the sender has not sent any weather packets the latest 10 day(s).
| Time | Temp. | Humidity | Pressure | Rain* | Wind** | Luminosity | Snow |
|---|---|---|---|---|---|---|---|
| 1778256749 | 14.44° C | 47% | 102.1 hPa | - | - | - | - |
| 1778256684 | 14.44° C | 46% | 102.1 hPa | - | - | - | - |
| 1778256618 | 13.89° C | 47% | 102.1 hPa | - | - | - | - |
| 1778256552 | 15° C | 46% | 102.1 hPa | - | - | - | - |
| 1778256486 | 15° C | 46% | 102.1 hPa | - | - | - | - |
| 1778256420 | 13.89° C | 49% | 102.1 hPa | - | - | - | - |
| 1778256354 | 13.89° C | 47% | 102.1 hPa | - | - | - | - |
| 1778256288 | 13.89° C | 48% | 102.1 hPa | - | - | - | - |
| 1778256223 | 13.89° C | 47% | 102.1 hPa | - | - | - | - |
| 1778256157 | 13.33° C | 46% | 102.1 hPa | - | - | - | - |
| 1778256091 | 14.44° C | 45% | 102.1 hPa | - | - | - | - |
| 1778256025 | 15° C | 44% | 102.1 hPa | - | - | - | - |
| 1778255959 | 14.44° C | 46% | 102.1 hPa | - | - | - | - |
| 1778255893 | 15° C | 46% | 102.1 hPa | - | - | - | - |
| 1778255828 | 16.11° C | 44% | 102.1 hPa | - | - | - | - |
| 1778255762 | 16.11° C | 44% | 102.1 hPa | - | - | - | - |
| 1778255696 | 15° C | 46% | 102.1 hPa | - | - | - | - |
| 1778255630 | 14.44° C | 46% | 102.1 hPa | - | - | - | - |
| 1778255564 | 14.44° C | 48% | 102.1 hPa | - | - | - | - |
| 1778255498 | 13.89° C | 48% | 102.1 hPa | - | - | - | - |
| 1778255433 | 14.44° C | 46% | 102.1 hPa | - | - | - | - |
| 1778255367 | 13.89° C | 46% | 102.1 hPa | - | - | - | - |
| 1778255301 | 13.89° C | 48% | 102.1 hPa | - | - | - | - |
| 1778255235 | 13.89° C | 47% | 102.1 hPa | - | - | - | - |
| 1778255169 | 13.89° C | 47% | 102.1 hPa | - | - | - | - |
* Rain since midnight (hover to see other rain measurements)
** Current wind speed in m/s (hover to see current wind gust speed)